Terminal Aerodrome Forecast
Issued by NWS Sterling, VA

Current Version | Previous Version | Graphics & Text | Print | Product List | Glossary On
Versions: 1 2 3 4 5 6 7 8 9 10 11 12 13 14 15 16 17 18
000
FTUS41 KLWX 282214 AAA
TAFMRB
TAF AMD
KMRB 282214Z 2822/2918 32014G24KT P6SM BKN060
     FM290100 32011KT P6SM SCT080
     FM290800 31007KT P6SM SKC=

USA.gov is the U.S. government's official web portal to all federal, state and local government web resources and services.